Time;durP1;ratioP1;P1;durP2;ratioP2;P2;SDS_P1;SDS_P2;PMS_P1;PMS_P2;Temp;Humidity;BMP_temperature;BMP_pressure;BME280_temperature;BME280_humidity;BME280_pressure;Samples;Min_cycle;Max_cycle;Signal;HPM_P1;HPM_P2
2024/03/16 00:00:49;;;;;;;18.47;9.17;;;;;;;;;;4976725;28;20879;-82
2024/03/16 00:03:15;;;;;;;10.53;7.30;;;;;;;;;;4980134;28;20520;-85
2024/03/16 00:05:42;;;;;;;13.60;9.30;;;;;;;;;;4991882;28;20503;-81
2024/03/16 00:08:07;;;;;;;13.10;10.10;;;;;;;;;;4994279;28;20829;-81
2024/03/16 00:10:33;;;;;;;11.73;7.87;;;;;;;;;;4995725;28;20559;-81
2024/03/16 00:12:59;;;;;;;13.30;9.00;;;;;;;;;;4995758;28;20885;-81
2024/03/16 00:15:26;;;;;;;15.53;8.97;;;;;;;;;;4995838;28;20410;-82
2024/03/16 00:17:52;;;;;;;18.27;7.97;;;;;;;;;;4976291;28;20440;-81
2024/03/16 00:20:18;;;;;;;14.83;7.97;;;;;;;;;;4976295;28;20410;-81
2024/03/16 00:22:44;;;;;;;14.73;9.83;;;;;;;;;;4976019;28;20405;-79
2024/03/16 00:25:10;;;;;;;11.27;8.50;;;;;;;;;;4976044;28;20445;-80
2024/03/16 00:27:36;;;;;;;13.10;8.97;;;;;;;;;;4991129;28;20413;-80
2024/03/16 00:30:04;;;;;;;12.93;8.00;;;;;;;;;;4976022;28;20469;-80
2024/03/16 00:32:30;;;;;;;12.67;8.43;;;;;;;;;;4976129;28;20445;-80
2024/03/16 00:34:56;;;;;;;17.20;9.70;;;;;;;;;;4976168;28;20421;-80
2024/03/16 00:37:22;;;;;;;11.60;8.20;;;;;;;;;;4975687;28;20945;-80
2024/03/16 00:39:49;;;;;;;14.53;9.53;;;;;;;;;;4975861;28;20413;-80
2024/03/16 00:42:15;;;;;;;14.57;10.07;;;;;;;;;;4975883;28;20171;-80
2024/03/16 00:44:41;;;;;;;15.43;9.10;;;;;;;;;;4975908;28;20444;-81
2024/03/16 00:47:07;;;;;;;11.90;9.30;;;;;;;;;;4987935;28;20207;-80
2024/03/16 00:49:36;;;;;;;16.27;10.27;;;;;;;;;;4997020;28;20283;-80
2024/03/16 00:52:02;;;;;;;16.00;10.20;;;;;;;;;;4994797;28;20423;-80
2024/03/16 00:54:27;;;;;;;17.57;10.00;;;;;;;;;;4995021;28;20419;-80
2024/03/16 00:56:53;;;;;;;17.80;11.53;;;;;;;;;;4995130;28;20877;-80
2024/03/16 00:59:20;;;;;;;17.80;10.80;;;;;;;;;;4995300;28;20184;-80
2024/03/16 01:01:47;;;;;;;17.63;12.27;;;;;;;;;;4994725;28;20204;-80
2024/03/16 01:04:13;;;;;;;19.43;10.63;;;;;;;;;;4994905;28;20412;-80
2024/03/16 01:06:39;;;;;;;18.27;12.40;;;;;;;;;;4993954;28;20440;-79
2024/03/16 01:09:05;;;;;;;17.80;11.13;;;;;;;;;;4994999;28;20177;-81
2024/03/16 01:11:32;;;;;;;16.80;13.77;;;;;;;;;;4994355;28;20833;-81
2024/03/16 01:13:58;;;;;;;21.43;14.90;;;;;;;;;;4994507;28;20407;-80
2024/03/16 01:16:24;;;;;;;28.53;16.03;;;;;;;;;;4995007;28;20441;-81
2024/03/16 01:18:50;;;;;;;20.97;15.70;;;;;;;;;;4994905;28;20468;-81
2024/03/16 01:21:16;;;;;;;21.20;15.90;;;;;;;;;;4994602;28;20418;-81
2024/03/16 01:23:42;;;;;;;25.33;16.03;;;;;;;;;;4994891;28;20824;-80
2024/03/16 01:26:09;;;;;;;26.93;16.33;;;;;;;;;;4994832;28;20463;-81
2024/03/16 01:28:35;;;;;;;21.20;16.97;;;;;;;;;;4994772;28;20781;-80
2024/03/16 01:31:01;;;;;;;25.90;17.90;;;;;;;;;;4993309;28;20484;-81
2024/03/16 01:33:27;;;;;;;24.20;18.40;;;;;;;;;;4994710;28;20188;-81
2024/03/16 01:35:54;;;;;;;22.53;16.87;;;;;;;;;;4993335;28;20795;-83
2024/03/16 01:38:20;;;;;;;26.83;16.70;;;;;;;;;;4994239;28;20507;-82
2024/03/16 01:40:46;;;;;;;23.50;17.10;;;;;;;;;;4993251;28;20855;-81
2024/03/16 01:43:13;;;;;;;21.30;16.90;;;;;;;;;;4994419;28;20430;-80
2024/03/16 01:45:40;;;;;;;24.10;17.63;;;;;;;;;;4994388;28;20464;-81
2024/03/16 01:48:09;;;;;;;20.37;15.23;;;;;;;;;;4994364;28;20440;-81
2024/03/16 01:50:35;;;;;;;21.73;16.10;;;;;;;;;;4994268;28;20575;-81
2024/03/16 01:53:02;;;;;;;28.17;17.30;;;;;;;;;;4992656;28;20516;-81
2024/03/16 01:55:28;;;;;;;23.60;17.30;;;;;;;;;;4994091;28;20275;-81
2024/03/16 01:57:53;;;;;;;22.00;16.70;;;;;;;;;;4994234;28;20529;-81
2024/03/16 02:00:19;;;;;;;21.90;16.20;;;;;;;;;;4994100;28;20590;-82
2024/03/16 02:02:45;;;;;;;27.63;18.33;;;;;;;;;;4994050;28;20170;-81
2024/03/16 02:05:11;;;;;;;22.47;16.80;;;;;;;;;;4994049;28;20458;-81
2024/03/16 02:07:37;;;;;;;23.50;17.47;;;;;;;;;;4993568;28;20655;-81
2024/03/16 02:10:04;;;;;;;22.33;18.70;;;;;;;;;;4993821;28;20217;-82
2024/03/16 02:12:30;;;;;;;25.90;17.40;;;;;;;;;;4992659;28;20439;-81
2024/03/16 02:14:56;;;;;;;24.53;18.80;;;;;;;;;;4993742;28;20515;-81
2024/03/16 02:17:22;;;;;;;29.80;18.17;;;;;;;;;;4993849;28;20765;-81
2024/03/16 02:19:48;;;;;;;26.63;17.43;;;;;;;;;;4993681;28;20890;-81
2024/03/16 02:22:14;;;;;;;27.10;18.73;;;;;;;;;;4992260;28;20419;-81
2024/03/16 02:24:40;;;;;;;24.50;16.80;;;;;;;;;;4993775;28;20420;-82
2024/03/16 02:27:06;;;;;;;24.60;18.50;;;;;;;;;;4993804;28;20426;-82
2024/03/16 02:29:35;;;;;;;24.20;18.93;;;;;;;;;;4993685;28;20512;-81
2024/03/16 02:32:01;;;;;;;22.17;19.03;;;;;;;;;;4993741;28;20449;-81
2024/03/16 02:34:27;;;;;;;25.83;18.40;;;;;;;;;;4993700;28;20897;-81
2024/03/16 02:36:53;;;;;;;32.30;21.60;;;;;;;;;;4993276;28;20425;-81
2024/03/16 02:39:22;;;;;;;28.43;19.17;;;;;;;;;;4993708;28;20496;-81
2024/03/16 02:41:48;;;;;;;26.03;18.60;;;;;;;;;;4993482;28;20440;-81
2024/03/16 02:44:14;;;;;;;26.90;19.80;;;;;;;;;;4993571;28;20899;-81
2024/03/16 02:46:40;;;;;;;32.13;21.70;;;;;;;;;;4993651;28;20184;-81
2024/03/16 02:49:06;;;;;;;26.93;20.90;;;;;;;;;;4993532;28;20614;-81
2024/03/16 02:51:31;;;;;;;27.87;20.83;;;;;;;;;;4993171;28;20273;-82
2024/03/16 02:53:58;;;;;;;28.50;21.67;;;;;;;;;;4993510;28;20527;-81
2024/03/16 02:56:23;;;;;;;26.00;20.30;;;;;;;;;;4993375;28;20481;-82
2024/03/16 02:58:50;;;;;;;29.80;23.20;;;;;;;;;;4993476;28;20405;-81
2024/03/16 03:01:16;;;;;;;30.00;21.37;;;;;;;;;;4993424;28;20420;-83
2024/03/16 03:03:42;;;;;;;32.70;22.20;;;;;;;;;;4992151;28;20435;-83
2024/03/16 03:06:09;;;;;;;27.60;20.93;;;;;;;;;;4993181;28;20240;-83
2024/03/16 03:08:34;;;;;;;27.33;21.07;;;;;;;;;;4993441;28;20413;-82
2024/03/16 03:11:01;;;;;;;29.10;21.37;;;;;;;;;;4992059;28;20531;-83
2024/03/16 03:13:27;;;;;;;29.30;22.70;;;;;;;;;;4993239;28;20630;-82
2024/03/16 03:15:53;;;;;;;33.03;20.73;;;;;;;;;;4993302;28;20519;-82
2024/03/16 03:18:19;;;;;;;26.90;19.97;;;;;;;;;;4993375;28;20747;-82
2024/03/16 03:20:45;;;;;;;36.70;20.40;;;;;;;;;;4993072;28;20185;-82
2024/03/16 03:23:11;;;;;;;25.70;18.90;;;;;;;;;;5008375;28;20413;-82
2024/03/16 03:25:37;;;;;;;31.23;22.00;;;;;;;;;;4994047;28;20175;-83
2024/03/16 03:28:03;;;;;;;33.33;21.83;;;;;;;;;;4997039;28;20428;-82
2024/03/16 03:30:29;;;;;;;29.00;20.20;;;;;;;;;;4996918;28;20499;-83
2024/03/16 03:32:54;;;;;;;26.60;19.60;;;;;;;;;;4996957;28;20412;-83
2024/03/16 03:35:20;;;;;;;27.87;19.47;;;;;;;;;;4995667;28;20647;-83
2024/03/16 03:37:46;;;;;;;25.50;19.00;;;;;;;;;;4996569;28;20178;-83
2024/03/16 03:40:12;;;;;;;27.27;20.27;;;;;;;;;;4996869;28;20635;-83
2024/03/16 03:42:45;;;;;;;24.27;19.50;;;;;;;;;;4996815;28;20421;-83
2024/03/16 03:45:13;;;;;;;29.33;16.60;;;;;;;;;;4996761;28;20910;-82
2024/03/16 03:50:28;;;;;;;27.20;19.20;;;;;;;;;;4996631;28;20475;-83
2024/03/16 03:52:55;;;;;;;23.43;17.73;;;;;;;;;;4996277;28;20411;-82
2024/03/16 03:55:24;;;;;;;29.40;19.37;;;;;;;;;;4996397;28;20503;-82
2024/03/16 03:57:50;;;;;;;24.00;19.33;;;;;;;;;;4996519;28;20431;-82
2024/03/16 04:00:15;;;;;;;30.70;21.30;;;;;;;;;;4996497;28;20461;-82
2024/03/16 04:02:41;;;;;;;28.80;19.23;;;;;;;;;;4996395;28;20827;-82
2024/03/16 04:05:07;;;;;;;27.37;18.80;;;;;;;;;;4996435;28;20410;-83
2024/03/16 04:07:33;;;;;;;26.60;19.40;;;;;;;;;;4995957;28;20905;-82
2024/03/16 04:10:00;;;;;;;31.33;19.47;;;;;;;;;;4996214;28;20474;-82
2024/03/16 04:12:26;;;;;;;29.77;18.80;;;;;;;;;;4996191;28;20451;-82
2024/03/16 04:14:53;;;;;;;29.73;17.43;;;;;;;;;;4996195;28;20429;-83
2024/03/16 04:17:19;;;;;;;32.20;20.13;;;;;;;;;;4996183;28;20415;-83
2024/03/16 04:19:45;;;;;;;27.40;17.63;;;;;;;;;;4996079;28;20499;-82
2024/03/16 04:22:14;;;;;;;23.80;16.70;;;;;;;;;;4995757;28;20917;-83
2024/03/16 04:24:40;;;;;;;25.07;16.60;;;;;;;;;;4995967;28;20410;-83
2024/03/16 04:27:06;;;;;;;23.70;15.67;;;;;;;;;;4996002;28;20508;-82
2024/03/16 04:29:32;;;;;;;25.53;15.03;;;;;;;;;;4995899;28;20445;-82
2024/03/16 04:31:58;;;;;;;24.97;16.87;;;;;;;;;;4994611;28;20432;-83
2024/03/16 04:34:25;;;;;;;23.13;15.40;;;;;;;;;;4995859;28;20179;-82
2024/03/16 04:36:54;;;;;;;27.97;15.40;;;;;;;;;;4995435;28;20887;-82
2024/03/16 04:39:21;;;;;;;20.70;13.80;;;;;;;;;;4994444;28;20443;-82
2024/03/16 04:41:47;;;;;;;24.20;14.50;;;;;;;;;;4995692;28;20453;-83
2024/03/16 04:44:13;;;;;;;19.60;13.53;;;;;;;;;;4995717;28;20453;-82
2024/03/16 04:46:38;;;;;;;26.37;13.07;;;;;;;;;;4995671;28;20414;-82
2024/03/16 04:49:04;;;;;;;22.80;13.67;;;;;;;;;;4995607;28;20175;-82
2024/03/16 04:51:30;;;;;;;19.97;12.90;;;;;;;;;;4993795;28;20222;-82
2024/03/16 04:53:56;;;;;;;21.73;12.77;;;;;;;;;;4995407;28;20414;-83
2024/03/16 04:56:23;;;;;;;19.20;12.57;;;;;;;;;;4995232;28;20520;-82
2024/03/16 04:58:49;;;;;;;22.70;12.13;;;;;;;;;;5010388;28;20415;-82
2024/03/16 05:01:16;;;;;;;18.83;12.00;;;;;;;;;;5010386;28;20496;-82
2024/03/16 05:03:42;;;;;;;21.40;13.13;;;;;;;;;;4995274;28;20183;-83
2024/03/16 05:06:08;;;;;;;17.60;11.23;;;;;;;;;;4994840;28;20426;-82
2024/03/16 05:08:34;;;;;;;20.87;12.90;;;;;;;;;;4995285;28;20411;-82
2024/03/16 05:11:00;;;;;;;21.60;11.90;;;;;;;;;;4995126;28;20976;-81
2024/03/16 05:13:29;;;;;;;21.83;11.23;;;;;;;;;;4995079;28;20410;-80
2024/03/16 05:15:55;;;;;;;18.03;11.30;;;;;;;;;;4995101;28;20492;-82
2024/03/16 05:18:21;;;;;;;18.90;10.00;;;;;;;;;;4994987;28;20446;-81
2024/03/16 05:20:47;;;;;;;16.40;11.47;;;;;;;;;;4994603;28;20433;-82
2024/03/16 05:23:16;;;;;;;23.90;11.10;;;;;;;;;;4994891;28;20411;-83
2024/03/16 05:25:48;;;;;;;20.53;10.47;;;;;;;;;;4994885;28;20429;-82
2024/03/16 05:28:13;;;;;;;19.60;10.87;;;;;;;;;;4993684;28;20422;-83
2024/03/16 05:30:39;;;;;;;22.37;9.87;;;;;;;;;;4993432;28;20473;-83
2024/03/16 05:33:05;;;;;;;21.70;10.10;;;;;;;;;;4994857;28;20434;-86
2024/03/16 05:35:31;;;;;;;21.10;10.70;;;;;;;;;;4993152;28;20460;-86
2024/03/16 05:37:57;;;;;;;17.07;8.80;;;;;;;;;;4994685;28;20217;-85
2024/03/16 05:40:23;;;;;;;22.00;9.67;;;;;;;;;;4994729;28;20510;-87
2024/03/16 05:42:49;;;;;;;16.03;8.50;;;;;;;;;;4995132;28;20179;-87
2024/03/16 05:45:15;;;;;;;14.23;8.80;;;;;;;;;;4994763;28;20411;-87
2024/03/16 05:47:41;;;;;;;14.50;7.33;;;;;;;;;;4994689;28;20183;-85
2024/03/16 05:50:07;;;;;;;12.80;7.30;;;;;;;;;;4992978;28;20973;-83
2024/03/16 05:52:34;;;;;;;15.83;7.67;;;;;;;;;;4994104;28;20425;-85
2024/03/16 05:55:00;;;;;;;15.53;6.63;;;;;;;;;;4994333;28;20413;-87
2024/03/16 05:57:25;;;;;;;18.47;7.90;;;;;;;;;;4994199;28;20483;-86
2024/03/16 05:59:52;;;;;;;12.40;6.87;;;;;;;;;;4994373;28;20468;-85
2024/03/16 06:02:18;;;;;;;9.50;4.63;;;;;;;;;;4994211;28;20633;-86
2024/03/16 06:04:44;;;;;;;4.90;2.93;;;;;;;;;;4992907;28;20522;-86
2024/03/16 06:07:11;;;;;;;3.47;1.40;;;;;;;;;;4994001;28;20170;-88
2024/03/16 06:09:37;;;;;;;3.47;1.47;;;;;;;;;;4994167;28;20415;-84
2024/03/16 06:12:03;;;;;;;3.40;0.87;;;;;;;;;;4992942;28;20416;-83
2024/03/16 06:14:29;;;;;;;2.03;0.67;;;;;;;;;;4994054;28;20173;-85
2024/03/16 06:16:55;;;;;;;1.27;0.43;;;;;;;;;;4993959;28;20896;-83
2024/03/16 06:19:21;;;;;;;3.50;1.10;;;;;;;;;;4993989;28;20523;-83
2024/03/16 06:21:47;;;;;;;1.93;0.70;;;;;;;;;;4993901;28;20445;-84
2024/03/16 06:24:12;;;;;;;3.50;0.80;;;;;;;;;;4994211;28;20627;-85
2024/03/16 06:26:40;;;;;;;2.00;0.67;;;;;;;;;;4993771;28;20413;-84
2024/03/16 06:29:08;;;;;;;2.37;0.93;;;;;;;;;;4993837;28;20421;-80
2024/03/16 06:31:37;;;;;;;5.13;1.20;;;;;;;;;;4993580;28;20991;-82
2024/03/16 06:34:06;;;;;;;4.47;1.47;;;;;;;;;;4993809;28;20407;-86
2024/03/16 06:36:38;;;;;;;3.40;1.47;;;;;;;;;;4993506;28;20416;-83
2024/03/16 06:39:10;;;;;;;3.40;1.67;;;;;;;;;;4993899;28;20414;-82
2024/03/16 06:41:36;;;;;;;4.70;2.07;;;;;;;;;;4993869;28;20456;-85
2024/03/16 06:44:03;;;;;;;2.40;1.70;;;;;;;;;;4992654;28;20468;-82
2024/03/16 06:46:31;;;;;;;4.70;1.90;;;;;;;;;;4993901;28;20427;-82
2024/03/16 06:48:59;;;;;;;3.70;1.87;;;;;;;;;;4989328;28;20449;-85
2024/03/16 06:51:25;;;;;;;6.80;3.10;;;;;;;;;;4973644;28;20480;-84
2024/03/16 06:53:51;;;;;;;5.03;3.00;;;;;;;;;;4983939;28;20420;-87
2024/03/16 06:56:18;;;;;;;6.00;3.27;;;;;;;;;;5002623;28;20842;-86
2024/03/16 06:58:44;;;;;;;5.70;1.60;;;;;;;;;;5010519;28;20418;-87
2024/03/16 07:01:12;;;;;;;5.70;2.30;;;;;;;;;;5013594;28;20426;-88
2024/03/16 07:03:38;;;;;;;4.47;1.17;;;;;;;;;;5017394;28;20409;-85
2024/03/16 07:06:06;;;;;;;7.07;1.97;;;;;;;;;;5016816;28;20779;-86
2024/03/16 07:08:32;;;;;;;7.10;1.50;;;;;;;;;;5017146;28;20409;-88
2024/03/16 07:10:58;;;;;;;3.47;1.17;;;;;;;;;;5016094;28;20474;-86
2024/03/16 07:13:24;;;;;;;4.07;1.13;;;;;;;;;;5017335;28;20792;-88
2024/03/16 07:15:50;;;;;;;6.87;2.07;;;;;;;;;;5017215;28;20622;-86
2024/03/16 07:18:17;;;;;;;4.90;2.00;;;;;;;;;;5016666;28;20428;-89
2024/03/16 07:20:43;;;;;;;5.53;2.03;;;;;;;;;;5016823;28;20428;-87
2024/03/16 07:23:09;;;;;;;7.50;2.40;;;;;;;;;;5017102;28;20536;-88
2024/03/16 07:25:35;;;;;;;4.23;2.27;;;;;;;;;;5017031;28;20445;-87
2024/03/16 07:28:01;;;;;;;7.30;3.33;;;;;;;;;;5016500;28;20427;-87
2024/03/16 07:30:28;;;;;;;10.23;4.20;;;;;;;;;;5016483;28;20819;-86
2024/03/16 07:32:54;;;;;;;7.97;3.40;;;;;;;;;;5015180;28;20406;-88
2024/03/16 07:35:19;;;;;;;6.13;4.23;;;;;;;;;;5016000;28;20435;-86
2024/03/16 07:37:45;;;;;;;9.00;3.93;;;;;;;;;;5015814;28;20493;-87
2024/03/16 07:40:15;;;;;;;12.07;4.37;;;;;;;;;;5016863;28;20418;-87
2024/03/16 07:42:44;;;;;;;5.70;2.43;;;;;;;;;;5016901;28;20415;-91
2024/03/16 07:45:10;;;;;;;7.03;1.90;;;;;;;;;;5016698;28;20416;-89
2024/03/16 07:47:36;;;;;;;8.60;1.60;;;;;;;;;;5015377;28;20921;-88
2024/03/16 07:50:03;;;;;;;8.27;1.97;;;;;;;;;;5015839;28;20875;-89
2024/03/16 07:52:29;;;;;;;6.23;1.97;;;;;;;;;;5000699;28;20784;-87
2024/03/16 07:54:55;;;;;;;6.10;1.37;;;;;;;;;;4995365;28;20438;-86
2024/03/16 07:57:21;;;;;;;11.30;2.20;;;;;;;;;;4995041;28;20480;-89
2024/03/16 07:59:47;;;;;;;9.53;1.43;;;;;;;;;;4996472;28;20419;-87
2024/03/16 08:02:13;;;;;;;8.50;1.90;;;;;;;;;;4992161;28;20262;-87
2024/03/16 08:04:39;;;;;;;8.63;2.37;;;;;;;;;;5003290;28;20207;-88
2024/03/16 08:07:05;;;;;;;10.57;1.40;;;;;;;;;;5014341;28;20419;-86
2024/03/16 08:09:31;;;;;;;8.93;3.10;;;;;;;;;;5013863;28;20421;-88
2024/03/16 08:11:57;;;;;;;6.90;1.03;;;;;;;;;;5014910;28;20469;-90
2024/03/16 08:14:23;;;;;;;7.73;1.87;;;;;;;;;;5014088;28;20416;-87
2024/03/16 08:16:49;;;;;;;4.97;1.40;;;;;;;;;;5015595;28;20411;-87
2024/03/16 08:19:16;;;;;;;11.20;1.13;;;;;;;;;;5015443;28;20770;-87
2024/03/16 08:21:43;;;;;;;7.53;1.37;;;;;;;;;;5014979;28;20484;-85
2024/03/16 08:24:09;;;;;;;6.13;1.07;;;;;;;;;;5015226;28;20469;-85
2024/03/16 08:26:34;;;;;;;4.60;1.50;;;;;;;;;;5015372;28;20413;-82
2024/03/16 08:29:00;;;;;;;6.90;0.80;;;;;;;;;;5013986;28;20425;-82
2024/03/16 08:31:27;;;;;;;3.90;0.97;;;;;;;;;;5014909;28;20484;-82
2024/03/16 08:33:53;;;;;;;5.10;1.13;;;;;;;;;;5015119;28;20410;-83
2024/03/16 08:36:18;;;;;;;6.97;0.90;;;;;;;;;;5013221;28;20434;-82
2024/03/16 08:38:45;;;;;;;4.47;1.47;;;;;;;;;;5013777;28;20552;-83
2024/03/16 08:41:11;;;;;;;10.03;0.97;;;;;;;;;;5015152;28;20171;-83
2024/03/16 08:43:37;;;;;;;3.20;0.60;;;;;;;;;;5014792;28;20418;-82
2024/03/16 08:46:06;;;;;;;4.80;0.73;;;;;;;;;;5014531;28;20432;-83
2024/03/16 08:48:33;;;;;;;7.60;1.13;;;;;;;;;;5015891;28;20420;-83
2024/03/16 08:50:59;;;;;;;8.67;1.60;;;;;;;;;;5014316;28;20947;-84
2024/03/16 08:53:26;;;;;;;7.87;1.43;;;;;;;;;;5014889;28;20420;-82
2024/03/16 08:55:56;;;;;;;7.13;0.60;;;;;;;;;;5014082;28;20907;-83
2024/03/16 08:58:24;;;;;;;6.60;0.93;;;;;;;;;;5014578;28;20448;-81
2024/03/16 09:00:51;;;;;;;4.03;0.50;;;;;;;;;;5014574;28;20777;-84
2024/03/16 09:03:16;;;;;;;8.20;0.70;;;;;;;;;;5014377;28;20423;-84
2024/03/16 09:05:42;;;;;;;6.03;0.83;;;;;;;;;;5014251;28;20516;-83
2024/03/16 09:08:08;;;;;;;4.67;0.30;;;;;;;;;;5014795;28;20171;-85
2024/03/16 09:10:35;;;;;;;6.57;0.37;;;;;;;;;;5012505;28;20234;-84
2024/03/16 09:13:02;;;;;;;5.33;0.80;;;;;;;;;;5014338;28;20178;-83
2024/03/16 09:15:28;;;;;;;4.00;0.70;;;;;;;;;;5014269;28;20452;-83
2024/03/16 09:17:54;;;;;;;4.40;1.03;;;;;;;;;;5013892;28;20509;-83
2024/03/16 09:20:20;;;;;;;5.77;1.00;;;;;;;;;;5013875;28;20433;-82
2024/03/16 09:22:47;;;;;;;5.67;0.97;;;;;;;;;;5013732;28;20423;-83
2024/03/16 09:25:14;;;;;;;5.80;1.00;;;;;;;;;;5014053;28;20406;-83
2024/03/16 09:27:40;;;;;;;4.87;0.60;;;;;;;;;;5014008;28;20496;-81
2024/03/16 09:30:08;;;;;;;4.30;0.83;;;;;;;;;;5013631;28;20507;-81
2024/03/16 09:32:36;;;;;;;8.73;2.33;;;;;;;;;;5014039;28;20498;-83
2024/03/16 09:35:10;;;;;;;4.30;1.00;;;;;;;;;;5012299;28;20434;-83
2024/03/16 09:37:36;;;;;;;6.37;0.70;;;;;;;;;;5012099;28;20507;-82
2024/03/16 09:40:09;;;;;;;4.97;0.50;;;;;;;;;;5013770;28;20418;-82
2024/03/16 09:42:36;;;;;;;7.13;1.23;;;;;;;;;;5013557;28;20415;-82
2024/03/16 09:45:06;;;;;;;3.70;0.57;;;;;;;;;;5012998;28;20455;-83
2024/03/16 09:47:32;;;;;;;4.93;0.60;;;;;;;;;;5013609;28;20466;-82
2024/03/16 09:49:58;;;;;;;8.93;1.43;;;;;;;;;;5012068;28;20463;-82
2024/03/16 09:52:26;;;;;;;7.43;0.90;;;;;;;;;;5012470;28;20820;-82
2024/03/16 09:54:53;;;;;;;5.67;0.50;;;;;;;;;;5012901;28;20417;-82
2024/03/16 09:57:21;;;;;;;2.23;0.30;;;;;;;;;;5012190;28;21049;-83
2024/03/16 09:59:48;;;;;;;3.70;0.57;;;;;;;;;;5013266;28;20746;-82
2024/03/16 10:02:20;;;;;;;4.37;0.40;;;;;;;;;;5013593;28;20474;-82
2024/03/16 10:04:48;;;;;;;4.17;0.87;;;;;;;;;;5013474;28;20406;-85
2024/03/16 10:07:13;;;;;;;5.73;0.73;;;;;;;;;;5013822;28;20444;-83
2024/03/16 10:09:55;;;;;;;3.97;0.50;;;;;;;;;;5010880;28;20450;-81
2024/03/16 10:12:22;;;;;;;3.73;0.63;;;;;;;;;;5013682;28;20199;-84
2024/03/16 10:15:19;;;;;;;8.50;0.50;;;;;;;;;;5009638;28;20407;-83
2024/03/16 10:17:45;;;;;;;2.57;0.77;;;;;;;;;;4991759;28;20420;-81
2024/03/16 10:20:15;;;;;;;3.40;0.43;;;;;;;;;;4993703;28;20411;-82
2024/03/16 10:22:42;;;;;;;6.23;1.07;;;;;;;;;;4993968;28;20413;-81
2024/03/16 10:25:09;;;;;;;5.17;0.40;;;;;;;;;;4992644;28;20515;-82
2024/03/16 10:27:35;;;;;;;5.07;0.50;;;;;;;;;;4993906;28;20466;-84
2024/03/16 10:30:02;;;;;;;4.13;0.37;;;;;;;;;;4991188;28;20482;-83
2024/03/16 10:32:28;;;;;;;8.93;1.00;;;;;;;;;;4991766;28;20954;-83
2024/03/16 10:34:58;;;;;;;6.10;1.27;;;;;;;;;;4992294;28;20476;-82
2024/03/16 10:37:24;;;;;;;9.13;0.77;;;;;;;;;;4992912;28;20909;-83
2024/03/16 10:39:50;;;;;;;9.87;1.00;;;;;;;;;;4992334;28;20417;-85
2024/03/16 10:42:18;;;;;;;2.50;0.40;;;;;;;;;;4993285;28;20410;-84
2024/03/16 10:44:46;;;;;;;4.47;0.40;;;;;;;;;;4992189;28;20580;-84
2024/03/16 10:47:14;;;;;;;4.53;0.50;;;;;;;;;;4993783;28;20417;-85
2024/03/16 10:49:40;;;;;;;2.20;0.30;;;;;;;;;;4993294;28;20924;-84
2024/03/16 10:52:11;;;;;;;5.00;1.87;;;;;;;;;;4992411;28;20433;-83
2024/03/16 10:54:37;;;;;;;3.33;0.80;;;;;;;;;;4993648;28;20898;-83
2024/03/16 10:57:07;;;;;;;6.30;0.77;;;;;;;;;;4992690;28;20473;-81
2024/03/16 10:59:33;;;;;;;3.93;0.63;;;;;;;;;;4993668;28;20743;-86
2024/03/16 11:01:59;;;;;;;7.00;1.00;;;;;;;;;;4993560;28;20481;-83
2024/03/16 11:04:25;;;;;;;9.73;1.20;;;;;;;;;;4993161;28;20823;-82
2024/03/16 11:06:54;;;;;;;10.73;0.70;;;;;;;;;;4993580;28;20907;-83
2024/03/16 11:09:32;;;;;;;1.70;0.30;;;;;;;;;;4993506;28;20411;-82
2024/03/16 11:12:00;;;;;;;6.17;0.53;;;;;;;;;;4993488;28;20427;-82
2024/03/16 11:14:26;;;;;;;7.50;0.60;;;;;;;;;;4991986;28;20411;-82
2024/03/16 11:16:53;;;;;;;3.73;0.60;;;;;;;;;;4993396;28;20477;-83
2024/03/16 11:19:23;;;;;;;3.53;0.83;;;;;;;;;;4993400;28;20411;-84
2024/03/16 11:21:51;;;;;;;4.30;0.63;;;;;;;;;;4993424;28;20494;-84
2024/03/16 11:24:17;;;;;;;4.90;0.77;;;;;;;;;;4993592;28;20419;-88
2024/03/16 11:26:44;;;;;;;6.80;0.63;;;;;;;;;;4993538;28;20419;-89
2024/03/16 11:29:14;;;;;;;8.03;1.53;;;;;;;;;;4999508;28;20411;-86
2024/03/16 11:31:41;;;;;;;9.37;0.90;;;;;;;;;;5012373;28;20501;-86
2024/03/16 11:34:09;;;;;;;4.23;0.60;;;;;;;;;;4995300;28;20431;-87
2024/03/16 11:36:37;;;;;;;3.23;0.63;;;;;;;;;;4993964;28;20413;-87
2024/03/16 11:39:10;;;;;;;5.03;0.30;;;;;;;;;;4993620;28;20433;-87
2024/03/16 11:41:42;;;;;;;3.60;0.77;;;;;;;;;;4993843;28;20772;-89
2024/03/16 11:44:09;;;;;;;4.70;0.60;;;;;;;;;;4993332;28;20422;-88
2024/03/16 11:46:35;;;;;;;6.10;0.50;;;;;;;;;;4994088;28;20439;-88
2024/03/16 11:49:01;;;;;;;5.73;0.93;;;;;;;;;;4996726;28;20414;-88
2024/03/16 11:51:28;;;;;;;6.37;0.90;;;;;;;;;;4996331;28;20481;-87
2024/03/16 11:53:55;;;;;;;3.20;1.27;;;;;;;;;;4995903;28;20433;-87
2024/03/16 11:56:27;;;;;;;6.30;0.57;;;;;;;;;;4996720;28;20478;-89
2024/03/16 11:58:54;;;;;;;3.47;0.80;;;;;;;;;;4996828;28;20557;-87
2024/03/16 12:01:24;;;;;;;7.83;0.73;;;;;;;;;;4996496;28;20415;-88
2024/03/16 12:03:51;;;;;;;6.03;1.37;;;;;;;;;;4996726;28;20888;-88
2024/03/16 12:06:18;;;;;;;4.77;1.30;;;;;;;;;;4995141;28;20515;-87
2024/03/16 12:08:45;;;;;;;2.60;0.80;;;;;;;;;;4996539;28;20542;-87
2024/03/16 12:11:15;;;;;;;5.53;0.60;;;;;;;;;;4996464;28;20477;-86
2024/03/16 12:13:41;;;;;;;4.73;0.70;;;;;;;;;;4996285;28;20786;-88
2024/03/16 12:16:09;;;;;;;9.80;1.83;;;;;;;;;;4996487;28;20441;-87
2024/03/16 12:18:34;;;;;;;11.77;2.00;;;;;;;;;;4996289;28;20408;-87
2024/03/16 12:21:03;;;;;;;7.23;0.97;;;;;;;;;;4996038;28;20459;-84
2024/03/16 12:23:29;;;;;;;11.00;1.90;;;;;;;;;;4996107;28;20415;-84
2024/03/16 12:25:55;;;;;;;7.63;1.37;;;;;;;;;;4996007;28;20469;-84
2024/03/16 12:28:22;;;;;;;5.97;0.80;;;;;;;;;;4995920;28;20420;-83
2024/03/16 12:30:48;;;;;;;8.43;1.50;;;;;;;;;;4995909;28;20471;-83
2024/03/16 12:33:14;;;;;;;5.83;1.83;;;;;;;;;;4995954;28;20410;-83
2024/03/16 12:35:40;;;;;;;5.60;0.97;;;;;;;;;;4995508;28;20442;-84
2024/03/16 12:38:08;;;;;;;8.47;1.23;;;;;;;;;;4995933;28;20465;-82
2024/03/16 12:40:34;;;;;;;7.43;1.10;;;;;;;;;;4995844;28;20418;-84
2024/03/16 12:43:00;;;;;;;2.93;1.17;;;;;;;;;;4995776;28;20463;-83
2024/03/16 12:45:26;;;;;;;4.47;1.23;;;;;;;;;;4994526;28;20447;-86
2024/03/16 12:47:52;;;;;;;8.37;0.90;;;;;;;;;;4995704;28;20410;-84
2024/03/16 12:50:18;;;;;;;2.17;0.50;;;;;;;;;;4993955;28;20222;-83
2024/03/16 12:52:43;;;;;;;5.30;1.23;;;;;;;;;;4995488;28;20617;-83
2024/03/16 12:55:13;;;;;;;5.30;0.93;;;;;;;;;;4995327;28;20190;-84
2024/03/16 12:57:39;;;;;;;6.60;1.63;;;;;;;;;;4994871;28;20177;-82
2024/03/16 13:00:06;;;;;;;10.70;1.53;;;;;;;;;;4994978;28;20877;-83
2024/03/16 13:02:32;;;;;;;5.57;1.50;;;;;;;;;;4994100;28;20949;-83
2024/03/16 13:04:59;;;;;;;6.20;1.30;;;;;;;;;;4994892;28;20418;-84
2024/03/16 13:07:25;;;;;;;4.83;1.03;;;;;;;;;;4993917;28;20513;-85
2024/03/16 13:09:52;;;;;;;4.93;1.30;;;;;;;;;;4995166;28;20426;-84
2024/03/16 13:12:18;;;;;;;3.83;0.77;;;;;;;;;;4995242;28;20410;-84
2024/03/16 13:14:47;;;;;;;9.70;1.60;;;;;;;;;;4995145;28;20421;-85
2024/03/16 13:17:13;;;;;;;6.17;1.20;;;;;;;;;;4995053;28;20896;-85
2024/03/16 13:19:39;;;;;;;8.33;1.23;;;;;;;;;;4994593;28;20405;-84
2024/03/16 13:22:06;;;;;;;7.17;1.40;;;;;;;;;;4995000;28;20822;-83
2024/03/16 13:24:32;;;;;;;4.73;1.43;;;;;;;;;;4994946;28;20417;-84
2024/03/16 13:26:57;;;;;;;4.47;0.87;;;;;;;;;;4994826;28;20415;-83
2024/03/16 13:29:23;;;;;;;6.70;1.07;;;;;;;;;;4994844;28;20181;-83
2024/03/16 13:31:50;;;;;;;6.13;1.20;;;;;;;;;;4993328;28;20234;-83
2024/03/16 13:34:16;;;;;;;7.70;0.97;;;;;;;;;;4994444;28;20425;-83
2024/03/16 13:36:42;;;;;;;6.30;1.10;;;;;;;;;;4994793;28;20260;-83
2024/03/16 13:39:08;;;;;;;7.10;0.93;;;;;;;;;;4994731;28;20443;-82
2024/03/16 13:41:34;;;;;;;7.80;2.00;;;;;;;;;;4994737;28;20179;-83
2024/03/16 13:44:00;;;;;;;6.37;1.03;;;;;;;;;;4993380;28;20237;-83
2024/03/16 13:46:26;;;;;;;5.20;1.23;;;;;;;;;;4994581;28;20473;-82
2024/03/16 13:49:00;;;;;;;2.73;0.67;;;;;;;;;;4994547;28;20927;-83
2024/03/16 13:51:26;;;;;;;6.90;0.83;;;;;;;;;;4994461;28;20894;-85
2024/03/16 13:54:01;;;;;;;3.73;0.90;;;;;;;;;;4994482;28;20417;-82
2024/03/16 13:56:27;;;;;;;5.53;0.70;;;;;;;;;;4994228;28;20477;-82
2024/03/16 13:58:53;;;;;;;8.27;0.80;;;;;;;;;;4994746;28;20417;-84
2024/03/16 14:01:24;;;;;;;6.33;1.27;;;;;;;;;;4994272;28;20405;-86
2024/03/16 14:03:50;;;;;;;8.43;1.47;;;;;;;;;;4992935;28;20428;-82
2024/03/16 14:06:16;;;;;;;9.33;1.20;;;;;;;;;;4993990;28;20896;-85
2024/03/16 14:08:42;;;;;;;8.93;0.83;;;;;;;;;;4992928;28;20431;-83
2024/03/16 14:11:08;;;;;;;8.70;1.00;;;;;;;;;;4993767;28;20216;-86
2024/03/16 14:13:35;;;;;;;4.33;0.67;;;;;;;;;;4994130;28;20414;-83
2024/03/16 14:16:05;;;;;;;7.57;2.30;;;;;;;;;;4992912;28;20490;-86
2024/03/16 14:18:31;;;;;;;4.07;0.97;;;;;;;;;;4994129;28;20414;-87
2024/03/16 14:20:58;;;;;;;8.40;1.33;;;;;;;;;;4992402;28;20474;-86
2024/03/16 14:23:24;;;;;;;5.73;1.37;;;;;;;;;;4993974;28;20406;-85
2024/03/16 14:25:50;;;;;;;7.97;1.37;;;;;;;;;;4993981;28;20441;-85
2024/03/16 14:28:16;;;;;;;7.23;1.23;;;;;;;;;;4993993;28;20415;-85
2024/03/16 14:30:42;;;;;;;9.10;1.47;;;;;;;;;;4992763;28;20470;-83
2024/03/16 14:33:08;;;;;;;7.70;1.23;;;;;;;;;;4993946;28;20579;-82